Pires Coelho — CUPM6 — position and weather

sailwx.info

Track history (hours):
 
Tides and Currents Weather Stations Pressure Air Temp Water Temp Dewpoint Dewpoint Depression Visibility Wind Speed Wind Dir Waves Ship Positions

Pires Coelho

Last reported at 2014-Dec-21 05:12 UTC. Time now 2014-Dec-21 12:44 UTC.
Position N 36°56' W 008°05'.

Length 27 m.

Type: Ship. MMSI: 263236000.

Date/timePositionNaut miles runAvg speedWind from/ knotsBaromVisibWave heightAir tempDewpointWater temp
2014-Dec-21 05:12N 36°56' W 008°05'7 9.6
2014-Dec-21 04:25N 36°59' W 008°14'9 9.6
2014-Dec-21 03:32N 37°03' W 008°23'8 8.0
2014-Dec-21 02:31N 37°08' W 008°32'0 0.0
2014-Dec-21 01:31N 37°08' W 008°32'0 0.0
2014-Dec-21 00:32N 37°08' W 008°32'0 0.0
2014-Dec-20 23:31N 37°08' W 008°32'0 0.0
2014-Dec-20 22:30N 37°08' W 008°32'0 0.3
2014-Dec-20 21:34N 37°08' W 008°32'10 9.9
2014-Dec-20 20:34N 36°58' W 008°33'6 6.4
2014-Dec-20 19:34N 36°52' W 008°33'3 2.7
2014-Dec-20 18:34N 36°49' W 008°32'3 2.7
2014-Dec-20 17:33N 36°48' W 008°29'6 2.9
2014-Dec-20 15:22N 36°47' W 008°21'10 2.5
2014-Dec-20 11:31N 36°51' W 008°31'2 1.7
2014-Dec-20 10:27N 36°50' W 008°32'4 2.9
2014-Dec-20 09:08N 36°48' W 008°27'4 0.6
2014-Dec-20 03:04N 36°48' W 008°32'0 0.7
2014-Dec-20 02:32N 36°48' W 008°32'1 0.4
2014-Dec-19 22:26N 36°47' W 008°30'13 3.0
2014-Dec-19 18:08N 36°47' W 008°14'3 3.1
2014-Dec-19 17:17N 36°48' W 008°11'1 0.0
2014-Dec-18 00:18N 36°47' W 008°12'3 3.1
2014-Dec-17 23:23N 36°48' W 008°08'10 0.6
2014-Dec-17 05:05N 36°58' W 008°07'510.0
2014-Dec-17 04:33N 36°60' W 008°13'17 8.3
2014-Dec-17 02:33N 37°08' W 008°32'0 0.0
2014-Dec-17 01:23N 37°08' W 008°32'0 0.0
2014-Dec-17 00:32N 37°08' W 008°32'0 0.0
2014-Dec-16 23:32N 37°08' W 008°32'0 0.0
2014-Dec-16 22:30N 37°08' W 008°32'0 0.1
2014-Dec-16 21:28N 37°08' W 008°32'1 0.7
2014-Dec-16 20:33N 37°07' W 008°32'10 9.8
2014-Dec-16 19:33N 37°00' W 008°23'1010.1
2014-Dec-16 18:33N 36°53' W 008°14'5 0.6
2014-Dec-16 10:33N 36°49' W 008°12'2 0.3
2014-Dec-16 04:11N 36°47' W 008°11'1 0.1
2014-Dec-15 10:17N 36°48' W 008°11'11 1.8
2014-Dec-15 04:32N 36°58' W 008°15'9 9.5
2014-Dec-15 03:33N 37°03' W 008°25'7 6.9
2014-Dec-15 02:33N 37°08' W 008°32'0 0.0
2014-Dec-15 01:23N 37°08' W 008°32'0 0.0
2014-Dec-15 00:33N 37°08' W 008°32'0 0.0
2014-Dec-14 23:22N 37°08' W 008°32'0 0.0
2014-Dec-14 22:31N 37°08' W 008°32'0 0.0
2014-Dec-14 21:31N 37°08' W 008°32'0 0.0
2014-Dec-14 20:28N 37°08' W 008°32'0 0.0
2014-Dec-14 19:16N 37°08' W 008°32'0 0.0
2014-Dec-14 18:26N 37°08' W 008°32'0 0.0
2014-Dec-14 17:22N 37°08' W 008°32'0 0.0
2014-Dec-14 16:24N 37°08' W 008°32'0 0.0
2014-Dec-14 15:16N 37°08' W 008°32'0 0.0
2014-Dec-14 14:31N 37°08' W 008°32'5 5.1
2014-Dec-14 13:33N 37°03' W 008°33'10 9.8
2014-Dec-14 12:33N 36°53' W 008°34'3 2.7
2014-Dec-14 11:22N 36°50' W 008°35'4 3.0
2014-Dec-14 10:08N 36°51' W 008°40'2 2.9
2014-Dec-14 09:34N 36°52' W 008°38'3 2.5
2014-Dec-14 08:29N 36°51' W 008°35'3 2.9
2014-Dec-14 07:32N 36°52' W 008°32'2 2.2
2014-Dec-14 06:33N 36°55' W 008°31'1010.2
2014-Dec-14 05:33N 37°05' W 008°32'3 2.6
2014-Dec-14 04:20N 37°08' W 008°32'0 0.0
2014-Dec-14 03:23N 37°08' W 008°32'0 0.0
2014-Dec-14 02:18N 37°08' W 008°32'0 0.0
2014-Dec-14 01:28N 37°08' W 008°32'0 0.0
2014-Dec-14 00:21N 37°08' W 008°32'0 0.0
2014-Dec-13 23:06N 37°08' W 008°32'0 0.0
2014-Dec-13 22:29N 37°08' W 008°32'0 0.0
2014-Dec-13 21:08N 37°08' W 008°32'0 0.0
2014-Dec-13 20:22N 37°08' W 008°32'0 0.0
2014-Dec-13 19:29N 37°08' W 008°32'0 0.0
2014-Dec-13 18:20N 37°08' W 008°32'0 0.0
2014-Dec-13 17:30N 37°08' W 008°32'0 0.0
2014-Dec-13 16:26N 37°08' W 008°32'3 3.7
2014-Dec-13 15:33N 37°05' W 008°31'9 9.4
2014-Dec-13 14:33N 36°56' W 008°26'13 4.1
2014-Dec-13 11:18N 36°48' W 008°13'2 2.9
2014-Dec-13 10:33N 36°48' W 008°10'0 0.0
2014-Dec-12 14:32N 36°48' W 008°09'2 0.5
2014-Dec-12 10:31N 36°49' W 008°12'2 0.1
2014-Dec-11 11:06N 36°49' W 008°09'  
Track history (hours):
 
Tides and Currents Weather Stations Pressure Air Temp Water Temp Dewpoint Dewpoint Depression Visibility Wind Speed Wind Dir Waves Ship Positions

Pires Coelho

Last reported at 2014-Dec-21 05:12 UTC. Time now 2014-Dec-21 12:44 UTC.
Position N 36°56' W 008°05'.

Length 27 m.

Type: Ship. MMSI: 263236000.

Date/timePositionNaut miles runAvg speedWind from/ knotsBaromVisibWave heightAir tempDewpointWater temp
2014-Dec-21 05:12N 36°56' W 008°05'7 9.6
2014-Dec-21 04:25N 36°59' W 008°14'9 9.6
2014-Dec-21 03:32N 37°03' W 008°23'8 8.0
2014-Dec-21 02:31N 37°08' W 008°32'0 0.0
2014-Dec-21 01:31N 37°08' W 008°32'0 0.0
2014-Dec-21 00:32N 37°08' W 008°32'0 0.0
2014-Dec-20 23:31N 37°08' W 008°32'0 0.0
2014-Dec-20 22:30N 37°08' W 008°32'0 0.3
2014-Dec-20 21:34N 37°08' W 008°32'10 9.9
2014-Dec-20 20:34N 36°58' W 008°33'6 6.4
2014-Dec-20 19:34N 36°52' W 008°33'3 2.7
2014-Dec-20 18:34N 36°49' W 008°32'3 2.7
2014-Dec-20 17:33N 36°48' W 008°29'6 2.9
2014-Dec-20 15:22N 36°47' W 008°21'10 2.5
2014-Dec-20 11:31N 36°51' W 008°31'2 1.7
2014-Dec-20 10:27N 36°50' W 008°32'4 2.9
2014-Dec-20 09:08N 36°48' W 008°27'4 0.6
2014-Dec-20 03:04N 36°48' W 008°32'0 0.7
2014-Dec-20 02:32N 36°48' W 008°32'1 0.4
2014-Dec-19 22:26N 36°47' W 008°30'13 3.0
2014-Dec-19 18:08N 36°47' W 008°14'3 3.1
2014-Dec-19 17:17N 36°48' W 008°11'1 0.0
2014-Dec-18 00:18N 36°47' W 008°12'3 3.1
2014-Dec-17 23:23N 36°48' W 008°08'10 0.6
2014-Dec-17 05:05N 36°58' W 008°07'510.0
2014-Dec-17 04:33N 36°60' W 008°13'17 8.3
2014-Dec-17 02:33N 37°08' W 008°32'0 0.0
2014-Dec-17 01:23N 37°08' W 008°32'0 0.0
2014-Dec-17 00:32N 37°08' W 008°32'0 0.0
2014-Dec-16 23:32N 37°08' W 008°32'0 0.0
2014-Dec-16 22:30N 37°08' W 008°32'0 0.1
2014-Dec-16 21:28N 37°08' W 008°32'1 0.7
2014-Dec-16 20:33N 37°07' W 008°32'10 9.8
2014-Dec-16 19:33N 37°00' W 008°23'1010.1
2014-Dec-16 18:33N 36°53' W 008°14'5 0.6
2014-Dec-16 10:33N 36°49' W 008°12'2 0.3
2014-Dec-16 04:11N 36°47' W 008°11'1 0.1
2014-Dec-15 10:17N 36°48' W 008°11'11 1.8
2014-Dec-15 04:32N 36°58' W 008°15'9 9.5
2014-Dec-15 03:33N 37°03' W 008°25'7 6.9
2014-Dec-15 02:33N 37°08' W 008°32'0 0.0
2014-Dec-15 01:23N 37°08' W 008°32'0 0.0
2014-Dec-15 00:33N 37°08' W 008°32'0 0.0
2014-Dec-14 23:22N 37°08' W 008°32'0 0.0
2014-Dec-14 22:31N 37°08' W 008°32'0 0.0
2014-Dec-14 21:31N 37°08' W 008°32'0 0.0
2014-Dec-14 20:28N 37°08' W 008°32'0 0.0
2014-Dec-14 19:16N 37°08' W 008°32'0 0.0
2014-Dec-14 18:26N 37°08' W 008°32'0 0.0
2014-Dec-14 17:22N 37°08' W 008°32'0 0.0
2014-Dec-14 16:24N 37°08' W 008°32'0 0.0
2014-Dec-14 15:16N 37°08' W 008°32'0 0.0
2014-Dec-14 14:31N 37°08' W 008°32'5 5.1
2014-Dec-14 13:33N 37°03' W 008°33'10 9.8
2014-Dec-14 12:33N 36°53' W 008°34'3 2.7
2014-Dec-14 11:22N 36°50' W 008°35'4 3.0
2014-Dec-14 10:08N 36°51' W 008°40'2 2.9
2014-Dec-14 09:34N 36°52' W 008°38'3 2.5
2014-Dec-14 08:29N 36°51' W 008°35'3 2.9
2014-Dec-14 07:32N 36°52' W 008°32'2 2.2
2014-Dec-14 06:33N 36°55' W 008°31'1010.2
2014-Dec-14 05:33N 37°05' W 008°32'3 2.6
2014-Dec-14 04:20N 37°08' W 008°32'0 0.0
2014-Dec-14 03:23N 37°08' W 008°32'0 0.0
2014-Dec-14 02:18N 37°08' W 008°32'0 0.0
2014-Dec-14 01:28N 37°08' W 008°32'0 0.0
2014-Dec-14 00:21N 37°08' W 008°32'0 0.0
2014-Dec-13 23:06N 37°08' W 008°32'0 0.0
2014-Dec-13 22:29N 37°08' W 008°32'0 0.0
2014-Dec-13 21:08N 37°08' W 008°32'0 0.0
2014-Dec-13 20:22N 37°08' W 008°32'0 0.0
2014-Dec-13 19:29N 37°08' W 008°32'0 0.0
2014-Dec-13 18:20N 37°08' W 008°32'0 0.0
2014-Dec-13 17:30N 37°08' W 008°32'0 0.0
2014-Dec-13 16:26N 37°08' W 008°32'3 3.7
2014-Dec-13 15:33N 37°05' W 008°31'9 9.4
2014-Dec-13 14:33N 36°56' W 008°26'13 4.1
2014-Dec-13 11:18N 36°48' W 008°13'2 2.9
2014-Dec-13 10:33N 36°48' W 008°10'0 0.0
2014-Dec-12 14:32N 36°48' W 008°09'2 0.5
2014-Dec-12 10:31N 36°49' W 008°12'2 0.1
2014-Dec-11 11:06N 36°49' W 008°09'  

Dump ship's entire track history